Latest Weather Observations for Esperance Airport

IDW60801

Issued at 11:03 am WST Wednesday 19 September 2018 (issued every 10 minutes, with the page automatically refreshed every 10 minutes)

About weather observations | Map of weather stations | Latest weather observations for WA | Other Formats
Station Details ID: 009542 Name: ESPERANCE AERO Lat: -33.68 Lon: 121.83 Height: 142.0 m
Data from the previous 72 hours. | See also: Recent months at Esperance Airport
Date/Time
WST
Temp
°C
App
Temp
°C
Dew
Point
°C
Rel
Hum
%
Delta-T
°C
Wind Press
QNH
hPa
Press
MSL
hPa
Rain since
9am
mm
Dir  Spd
km/h
Gust
km/h
Spd
kts
Gust
kts
19/11:00am 14.0 10.5 12.2 89 1.0 SW 22 30 12 16 1027.6 1027.6 0.2
19/10:30am 14.4 12.2 13.3 93 0.6 W 17 22 9 12 1027.7 1027.7 0.2
19/10:24am 14.0 12.1 13.1 94 0.5 WSW 15 20 8 11 1027.8 1027.8 0.2
19/10:13am 13.0 10.5 12.2 95 0.4 WSW 17 22 9 12 1027.8 1027.8 0.0
19/10:00am 12.7 10.1 11.9 95 0.4 W 17 26 9 14 1028.0 1028.0 0.0
19/09:30am 12.7 10.2 12.2 97 0.3 W 17 24 9 13 1028.0 1028.0 0.0
19/09:20am 12.6 10.8 12.1 97 0.3 WSW 13 19 7 10 1028.1 1028.1 0.0
19/09:00am 12.5 10.0 12.2 98 0.2 W 17 22 9 12 1028.1 1028.1 4.8
19/08:33am 11.8 9.0 11.5 98 0.2 W 17 22 9 12 1028.0 1028.0 4.6
19/08:30am 11.8 9.0 11.5 98 0.2 W 17 22 9 12 1027.9 1027.9 4.6
19/08:11am 11.9 9.2 11.6 98 0.2 WNW 17 20 9 11 1027.9 1027.9 4.6
19/08:00am 11.7 8.9 11.4 98 0.2 W 17 20 9 11 1027.9 1027.9 4.6
19/07:53am 11.2 8.3 10.9 98 0.2 W 17 20 9 11 1027.8 1027.8 4.6
19/07:34am 11.1 8.1 10.8 98 0.2 WNW 17 20 9 11 1027.7 1027.7 4.6
19/07:30am 10.9 7.9 10.6 98 0.2 WNW 17 20 9 11 1027.7 1027.7 4.6
19/07:08am 10.8 7.8 10.5 98 0.2 WNW 17 20 9 11 1027.5 1027.5 4.4
19/07:00am 11.0 8.4 10.7 98 0.2 WNW 15 19 8 10 1027.3 1027.3 4.4
19/06:30am 10.3 7.9 10.0 98 0.2 WNW 13 17 7 9 1027.1 1027.1 4.4
19/06:00am 10.1 8.3 9.6 97 0.3 WNW 9 13 5 7 1026.9 1026.9 4.4
19/05:44am 10.1 8.3 9.6 97 0.3 WNW 9 13 5 7 1026.8 1026.8 4.4
19/05:35am 9.9 8.1 9.4 97 0.3 W 9 13 5 7 1026.7 1026.7 4.4
19/05:30am 10.0 8.2 9.5 97 0.3 W 9 13 5 7 1026.6 1026.6 4.4
19/05:06am 10.1 8.0 9.6 97 0.3 WNW 11 15 6 8 1026.5 1026.5 4.0
19/05:00am 9.9 8.1 9.4 97 0.2 WNW 9 13 5 7 1026.4 1026.4 4.0
19/04:30am 10.2 8.1 9.7 97 0.3 W 11 13 6 7 1026.1 1026.1 4.0
19/04:23am 10.4 8.3 9.9 97 0.3 W 11 15 6 8 1026.1 1026.1 4.0
19/04:03am 10.4 8.3 9.9 97 0.3 W 11 13 6 7 1025.9 1025.8 3.8
19/04:00am 10.4 8.3 9.9 97 0.3 W 11 13 6 7 1026.0 1026.0 3.8
19/03:30am 10.4 8.0 9.9 97 0.3 W 13 15 7 8 1025.9 1025.8 3.8
19/03:06am 10.4 8.3 9.8 96 0.3 W 11 13 6 7 1025.8 1025.7 3.6
19/03:00am 10.5 8.4 9.9 96 0.3 WSW 11 15 6 8 1025.7 1025.6 3.6
19/02:47am 10.6 8.2 10.0 96 0.3 SW 13 19 7 10 1025.8 1025.7 3.6
19/02:30am 10.6 7.4 10.0 96 0.3 SW 17 24 9 13 1025.9 1025.8 3.2
19/02:28am 10.6 7.8 10.0 96 0.3 SW 15 24 8 13 1025.8 1025.7 3.0
19/02:14am 10.7 7.5 10.1 96 0.3 WSW 17 22 9 12 1025.8 1025.7 2.6
19/02:03am 10.8 8.1 10.2 96 0.3 WSW 15 20 8 11 1025.7 1025.6 2.2
19/02:00am 10.7 7.9 9.9 95 0.4 SW 15 20 8 11 1025.7 1025.6 2.0
19/01:34am 10.8 8.8 10.0 95 0.4 W 11 15 6 8 1026.1 1026.1 1.2
19/01:32am 10.7 9.0 9.9 95 0.4 W 9 13 5 7 1026.1 1026.1 1.2
19/01:30am 10.7 9.0 9.9 95 0.4 WSW 9 13 5 7 1026.1 1026.1 1.0
19/01:00am 10.5 8.4 9.6 94 0.5 WSW 11 13 6 7 1026.2 1026.2 0.8
19/12:30am 10.7 8.6 9.9 95 0.4 WSW 11 17 6 9 1026.4 1026.4 0.8
19/12:00am 10.3 8.5 9.4 94 0.4 WSW 9 13 5 7 1026.5 1026.5 0.8
 
Date/Time
WST
Temp
°C
App
Temp
°C
Dew
Point
°C
Rel
Hum
%
Delta-T
°C
Wind Press
QNH
hPa
Press
MSL
hPa
Rain since
9am
mm
Dir  Spd
km/h
Gust
km/h
Spd
kts
Gust
kts
18/11:30pm 10.7 9.0 9.9 95 0.4 SW 9 13 5 7 1026.4 1026.4 0.8
18/11:00pm 11.2 9.3 10.4 95 0.4 SW 11 15 6 8 1026.5 1026.5 0.8
18/10:30pm 11.3 9.4 10.5 95 0.4 WSW 11 17 6 9 1026.6 1026.6 0.8
18/10:00pm 11.4 9.1 10.5 94 0.5 SW 13 19 7 10 1026.6 1026.6 0.8
18/09:30pm 11.3 9.8 10.5 95 0.4 SW 9 15 5 8 1026.6 1026.6 0.8
18/09:28pm 11.3 9.8 10.5 95 0.4 SW 9 13 5 7 1026.6 1026.6 0.8
18/09:06pm 11.4 9.9 10.5 94 0.5 SW 9 11 5 6 1026.7 1026.7 0.8
18/09:00pm 11.4 9.9 10.5 94 0.5 WSW 9 13 5 7 1026.7 1026.7 0.8
18/08:30pm 11.4 9.9 10.5 94 0.5 W 9 13 5 7 1026.5 1026.5 0.8
18/08:00pm 11.4 9.9 10.5 94 0.5 WSW 9 13 5 7 1026.5 1026.5 0.6
18/07:30pm 11.3 9.8 10.4 94 0.5 WSW 9 13 5 7 1026.5 1026.5 0.6
18/07:25pm 11.3 9.8 10.4 94 0.5 WSW 9 11 5 6 1026.5 1026.5 0.6
18/07:00pm 11.8 10.3 10.7 93 0.6 WSW 9 13 5 7 1026.3 1026.3 0.6
18/06:30pm 11.9 9.3 10.8 93 0.6 WSW 15 19 8 10 1026.1 1026.1 0.6
18/06:27pm 11.9 9.3 10.6 92 0.7 SW 15 19 8 10 1026.0 1026.0 0.6
18/06:00pm 12.2 10.0 10.9 92 0.7 WSW 13 19 7 10 1025.9 1025.8 0.4
18/05:30pm 12.5 9.3 11.1 91 0.7 SW 19 26 10 14 1025.6 1025.5 0.4
18/05:00pm 13.0 8.3 10.7 86 1.2 SW 26 41 14 22 1025.3 1025.2 0.2
18/04:30pm 13.6 9.3 10.6 82 1.6 SW 24 37 13 20 1025.1 1025.0 0.2
18/04:00pm 13.4 8.8 10.9 85 1.3 SW 26 35 14 19 1024.9 1024.8 0.2
18/03:30pm 13.1 8.8 10.8 86 1.2 SW 24 33 13 18 1024.9 1024.8 0.0
18/03:14pm 14.3 8.6 9.9 75 2.3 SW 30 56 16 30 1024.7 1024.6 0.0
18/03:00pm 15.0 9.0 10.2 73 2.5 SW 32 41 17 22 1024.7 1024.6 0.0
18/02:30pm 14.5 8.8 9.7 73 2.5 SW 30 43 16 23 1024.6 1024.5 0.0
18/02:00pm 15.7 9.9 10.7 72 2.7 WSW 32 41 17 22 1024.6 1024.5 0.0
18/01:30pm 15.6 10.5 10.6 72 2.7 SW 28 39 15 21 1024.7 1024.6 0.0
18/01:00pm 15.9 10.1 9.6 66 3.3 SW 30 43 16 23 1024.8 1024.7 0.0
18/12:30pm 15.1 9.5 10.1 72 2.6 SW 30 37 16 20 1025.0 1024.9 0.0
18/12:00pm 14.7 10.3 11.8 83 1.6 SW 26 35 14 19 1025.2 1025.1 0.0
18/11:30am 13.7 7.4 9.6 76 2.1 SW 33 48 18 26 1025.6 1025.5 0.0
18/11:27am 15.1 9.3 9.5 69 2.9 WSW 30 48 16 26 1025.5 1025.4 0.0
18/11:00am 14.5 7.9 8.5 67 3.0 SW 33 46 18 25 1025.8 1025.7 0.0
18/10:30am 13.6 7.3 9.8 78 2.0 SW 33 46 18 25 1025.8 1025.7 0.0
18/10:00am 12.9 7.3 8.8 76 2.1 SW 28 41 15 22 1025.9 1025.8 0.0
18/09:37am 14.0 10.3 11.5 85 1.3 WSW 22 32 12 17 1025.7 1025.6 0.0
18/09:30am 13.6 10.0 11.8 89 1.0 WSW 22 32 12 17 1025.7 1025.6 0.0
18/09:00am 12.0 8.2 11.1 94 0.5 W 22 32 12 17 1025.6 1025.5 5.2
18/08:56am 11.7 8.2 10.8 94 0.5 W 20 28 11 15 1025.6 1025.5 5.2
18/08:37am 11.7 7.9 11.1 96 0.3 W 22 30 12 16 1025.4 1025.3 5.2
18/08:30am 11.8 8.4 11.2 96 0.3 W 20 26 11 14 1025.4 1025.3 5.2
18/08:00am 10.4 6.8 9.9 97 0.3 W 19 22 10 12 1025.2 1025.1 5.2
18/07:57am 10.1 6.8 9.6 97 0.3 W 17 20 9 11 1025.2 1025.1 5.2
18/07:39am 9.7 6.3 9.2 97 0.2 W 17 24 9 13 1025.2 1025.1 5.2
18/07:30am 9.5 6.1 9.0 97 0.2 W 17 24 9 13 1025.0 1024.9 5.0
18/07:00am 9.0 5.4 8.4 96 0.3 WNW 17 20 9 11 1024.7 1024.6 5.0
18/06:30am 8.6 5.3 8.0 96 0.3 WNW 15 20 8 11 1024.5 1024.4 5.0
18/06:24am 8.5 5.2 7.9 96 0.3 WNW 15 19 8 10 1024.4 1024.3 5.0
18/06:00am 8.3 5.3 7.7 96 0.3 WNW 13 17 7 9 1024.0 1023.9 5.0
18/05:53am 8.3 5.3 7.7 96 0.3 WNW 13 17 7 9 1023.9 1023.8 5.0
18/05:35am 8.0 4.5 7.2 95 0.4 WNW 15 19 8 10 1024.0 1023.9 4.8
18/05:30am 7.6 4.4 6.9 95 0.3 WNW 13 19 7 10 1023.7 1023.7 4.6
18/05:00am 7.7 4.2 7.0 95 0.3 WNW 15 19 8 10 1023.3 1023.3 4.6
18/04:30am 7.7 3.7 6.8 94 0.4 WNW 17 19 9 10 1023.0 1023.0 4.6
18/04:00am 7.6 3.9 6.5 93 0.5 WNW 15 19 8 10 1022.9 1022.9 4.6
18/03:30am 8.0 4.4 6.8 92 0.6 WNW 15 19 8 10 1022.7 1022.7 4.6
18/03:00am 8.5 5.7 7.1 91 0.7 WNW 11 13 6 7 1022.6 1022.6 4.6
18/02:30am 8.4 4.9 7.0 91 0.7 W 15 19 8 10 1022.6 1022.6 4.6
18/02:00am 7.7 4.4 6.3 91 0.6 W 13 15 7 8 1022.6 1022.6 4.6
18/01:30am 7.6 4.3 6.4 92 0.6 W 13 15 7 8 1022.7 1022.7 4.6
18/01:00am 8.4 5.6 7.0 91 0.7 WSW 11 13 6 7 1022.8 1022.8 4.6
18/12:30am 9.7 6.8 8.3 91 0.7 WSW 13 17 7 9 1022.8 1022.8 4.6
18/12:00am 9.4 7.3 8.2 92 0.6 W 9 13 5 7 1022.5 1022.5 4.6
 
Date/Time
WST
Temp
°C
App
Temp
°C
Dew
Point
°C
Rel
Hum
%
Delta-T
°C
Wind Press
QNH
hPa
Press
MSL
hPa
Rain since
9am
mm
Dir  Spd
km/h
Gust
km/h
Spd
kts
Gust
kts
17/11:30pm 9.0 6.7 7.5 90 0.7 W 9 11 5 6 1022.6 1022.6 4.4
17/11:00pm 9.3 5.9 7.6 89 0.8 SW 15 22 8 12 1022.7 1022.7 4.4
17/10:30pm 9.3 6.2 7.3 87 1.0 SW 13 17 7 9 1022.7 1022.7 4.4
17/10:00pm 9.6 5.6 6.7 82 1.4 SW 17 20 9 11 1022.5 1022.5 4.4
17/09:30pm 9.6 5.0 6.7 82 1.4 SW 20 26 11 14 1022.4 1022.4 4.4
17/09:00pm 10.0 6.0 8.1 88 0.9 SW 19 28 10 15 1022.3 1022.3 4.4
17/08:30pm 10.0 6.1 8.6 91 0.7 SW 19 24 10 13 1022.0 1022.0 4.4
17/08:00pm 9.8 6.3 8.7 93 0.5 WSW 17 26 9 14 1021.9 1021.9 4.4
17/07:41pm 9.8 6.0 8.9 94 0.4 WSW 19 37 10 20 1021.8 1021.8 4.2
17/07:30pm 9.6 6.8 8.7 94 0.4 WSW 13 17 7 9 1021.4 1021.4 4.2
17/07:06pm 10.0 6.6 9.1 94 0.4 W 17 22 9 12 1021.3 1021.3 4.2
17/07:00pm 10.1 6.7 9.2 94 0.4 W 17 20 9 11 1021.3 1021.3 4.2
17/06:45pm 10.0 6.5 8.9 93 0.5 WSW 17 22 9 12 1021.1 1021.1 3.6
17/06:30pm 9.9 6.4 8.8 93 0.5 W 17 19 9 10 1020.7 1020.7 3.4
17/06:07pm 10.2 6.4 9.0 92 0.6 WSW 19 26 10 14 1020.7 1020.7 3.4
17/06:00pm 10.2 5.8 8.8 91 0.7 WSW 22 28 12 15 1020.7 1020.7 3.4
17/05:31pm 10.6 6.1 8.7 88 0.9 SW 22 32 12 17 1020.4 1020.4 2.0
17/05:30pm 10.6 6.5 8.5 87 1.0 SW 20 32 11 17 1020.4 1020.4 2.0
17/05:00pm 11.4 7.2 9.7 89 0.9 WSW 22 32 12 17 1020.0 1020.0 1.6
17/04:36pm 10.9 5.4 9.2 89 0.9 WSW 28 39 15 21 1019.7 1019.6 1.6
17/04:30pm 10.9 5.4 9.0 88 1.0 WSW 28 37 15 20 1019.7 1019.6 1.6
17/04:19pm 10.9 4.5 8.5 85 1.2 SW 32 46 17 25 1019.6 1019.5 1.4
17/04:15pm 11.3 5.6 8.5 83 1.4 SW 28 46 15 25 1019.5 1019.4 1.2
17/04:00pm 12.1 6.7 9.5 84 1.3 WSW 28 35 15 19 1019.3 1019.2 1.2
17/03:54pm 11.7 6.7 9.6 87 1.1 WSW 26 33 14 18 1019.3 1019.2 1.2
17/03:45pm 11.2 4.9 9.1 87 1.1 WSW 32 50 17 27 1019.4 1019.3 1.2
17/03:43pm 11.1 4.2 8.8 86 1.1 SW 35 50 19 27 1019.4 1019.3 1.2
17/03:30pm 12.3 5.4 8.8 79 1.8 WSW 35 48 19 26 1019.2 1019.1 0.8
17/03:28pm 12.6 6.2 9.2 80 1.7 SW 33 48 18 26 1019.1 1019.0 0.8
17/03:21pm 12.2 6.5 9.8 85 1.2 SW 30 48 16 26 1019.1 1019.0 0.8
17/03:11pm 11.6 5.3 8.8 83 1.4 SW 32 44 17 24 1019.1 1019.0 0.6
17/03:00pm 12.7 6.2 8.2 74 2.2 SW 32 43 17 23 1019.0 1018.9 0.2
17/02:30pm 13.3 7.9 9.4 77 2.0 SW 28 35 15 19 1019.0 1018.9 0.2
17/02:02pm 12.5 5.0 8.0 74 2.2 WSW 37 56 20 30 1018.8 1018.7 0.2
17/02:00pm 12.9 5.8 8.0 72 2.4 WSW 35 46 19 25 1018.8 1018.7 0.2
17/01:30pm 11.9 6.1 9.5 85 1.2 WSW 30 44 16 24 1018.7 1018.6 0.2
17/01:26pm 12.0 7.2 10.2 89 0.9 WSW 26 41 14 22 1018.6 1018.5 0.2
17/01:08pm 11.4 4.5 9.0 85 1.2 SW 35 52 19 28 1018.8 1018.7 0.2
17/01:00pm 12.6 5.9 8.3 75 2.1 SW 33 44 18 24 1018.6 1018.5 0.0
17/12:53pm 12.3 6.1 9.5 83 1.4 SW 32 43 17 23 1018.6 1018.5 0.0
17/12:38pm 11.5 3.7 8.2 80 1.6 SW 39 54 21 29 1018.6 1018.5 0.0
17/12:30pm 13.0 5.1 6.1 63 3.3 SW 37 46 20 25 1018.5 1018.4 0.0
17/12:00pm 14.9 7.9 4.0 48 5.0 SW 30 50 16 27 1018.3 1018.2 0.0
17/11:30am 13.7 5.8 4.3 53 4.3 WSW 35 50 19 27 1018.5 1018.4 0.0
17/11:00am 15.6 7.9 5.2 50 5.0 SW 35 44 19 24 1018.4 1018.3 0.0
17/10:30am 14.0 5.7 2.3 45 5.2 SW 35 48 19 26 1018.5 1018.4 0.0
17/10:00am 13.6 5.4 2.8 48 4.8 SW 35 46 19 25 1018.5 1018.4 0.0
17/09:32am 13.1 5.8 4.3 55 4.0 SW 32 50 17 27 1018.3 1018.2 0.0
17/09:30am 13.3 5.7 3.9 53 4.3 SW 33 50 18 27 1018.3 1018.2 0.0
17/09:00am 13.2 4.7 3.3 51 4.4 SW 37 50 20 27 1018.0 1017.9 1.2
17/08:30am 13.3 6.3 6.2 62 3.4 SW 32 46 17 25 1017.7 1017.6 1.2
17/08:00am 12.6 5.1 3.3 53 4.2 SW 32 41 17 22 1017.4 1017.3 1.2
17/07:30am 11.2 4.4 5.1 66 2.8 SW 30 43 16 23 1017.3 1017.2 1.2
17/07:21am 11.2 4.7 4.9 65 2.9 SW 28 43 15 23 1017.1 1017.0 1.2
17/07:00am 11.1 7.0 6.0 71 2.4 SSW 17 22 9 12 1016.8 1016.7 1.2
17/06:30am 9.6 5.4 5.6 76 1.8 SSW 17 22 9 12 1016.5 1016.4 1.2
17/06:00am 9.8 4.0 6.2 78 1.7 SW 26 37 14 20 1016.1 1016.1 1.2
17/05:30am 10.0 4.9 7.8 86 1.1 SSW 24 35 13 19 1015.7 1015.7 1.2
17/05:00am 10.0 5.5 8.6 91 0.7 SW 22 30 12 16 1015.4 1015.4 1.2
17/04:39am 9.8 4.8 8.2 90 0.8 SSW 24 33 13 18 1015.1 1015.1 1.0
17/04:30am 10.1 4.8 8.4 89 0.8 SW 26 37 14 20 1014.9 1014.9 1.0
17/04:28am 10.2 4.9 8.5 89 0.8 SW 26 37 14 20 1015.0 1015.0 1.0
17/04:00am 10.6 6.5 8.5 87 1.0 SW 20 30 11 16 1014.5 1014.5 0.8
17/03:30am 9.8 5.8 8.2 90 0.8 SW 19 24 10 13 1014.2 1014.2 0.8
17/03:00am 10.0 5.1 8.6 91 0.7 SW 24 32 13 17 1014.0 1014.0 0.8
17/02:38am 10.5 5.5 9.4 93 0.6 SW 26 33 14 18 1013.9 1013.8 0.8
17/02:33am 10.8 6.2 9.7 93 0.6 SW 24 32 13 17 1013.9 1013.8 0.8
17/02:30am 10.9 6.0 10.0 94 0.5 SW 26 32 14 17 1013.9 1013.8 0.8
17/02:18am 11.0 6.5 9.9 93 0.6 SW 24 33 13 18 1013.9 1013.8 0.8
17/02:00am 10.1 7.0 8.9 92 0.6 WSW 15 22 8 12 1013.8 1013.7 0.4
17/01:56am 9.5 6.6 8.1 91 0.7 WSW 13 17 7 9 1013.8 1013.7 0.4
17/01:30am 8.5 5.7 7.0 90 0.7 WSW 11 13 6 7 1013.5 1013.4 0.0
17/01:00am 8.1 5.1 6.2 88 0.9 WSW 11 13 6 7 1013.7 1013.6 0.0
17/12:30am 8.3 5.3 5.9 85 1.1 WSW 11 15 6 8 1013.8 1013.7 0.0
17/12:00am 9.8 6.7 7.4 85 1.1 SW 13 17 7 9 1013.6 1013.5 0.0
 
Date/Time
WST
Temp
°C
App
Temp
°C
Dew
Point
°C
Rel
Hum
%
Delta-T
°C
Wind Press
QNH
hPa
Press
MSL
hPa
Rain since
9am
mm
Dir  Spd
km/h
Gust
km/h
Spd
kts
Gust
kts
16/11:30pm 9.5 6.0 7.4 87 1.0 SW 15 17 8 9 1013.6 1013.5 0.0
16/11:00pm 9.6 6.5 7.2 85 1.1 SSW 13 15 7 8 1013.9 1013.8 0.0
16/10:30pm 10.3 6.2 7.9 85 1.2 SSW 19 24 10 13 1014.2 1014.2 0.0
16/10:00pm 10.0 6.6 7.6 85 1.2 SSW 15 19 8 10 1014.4 1014.4 0.0
16/09:30pm 10.2 6.8 7.6 84 1.3 SSW 15 19 8 10 1014.6 1014.6 0.0
16/09:00pm 10.6 6.8 7.5 81 1.5 SSW 17 19 9 10 1014.5 1014.5 0.0
16/08:30pm 11.6 7.4 8.3 80 1.6 SSW 20 26 11 14 1014.3 1014.3 0.0
16/08:00pm 11.7 7.8 8.6 81 1.5 SSW 19 22 10 12 1013.9 1013.8 0.0
16/07:30pm 12.8 9.2 9.8 82 1.5 SSW 19 24 10 13 1013.5 1013.4 0.0
16/07:00pm 13.5 9.3 7.3 66 3.0 SSW 19 22 10 12 1013.1 1013.0 0.0
16/06:30pm 14.7 11.0 4.7 51 4.7 N 13 28 7 15 1012.4 1012.3 0.0
16/06:00pm 17.5 14.2 2.7 37 6.8 NNE 9 11 5 6 1012.0 1011.9 0.0
16/05:30pm 18.6 15.3 4.8 40 6.7 NNE 11 13 6 7 1012.0 1011.9 0.0
16/05:00pm 19.7 17.1 6.1 41 6.8 N 9 13 5 7 1012.2 1012.1 0.0
16/04:30pm 21.5 17.8 2.2 28 9.1 NNW 11 15 6 8 1012.6 1012.5 0.0
16/04:00pm 21.8 17.4 2.5 28 9.2 NW 15 20 8 11 1012.9 1012.8 0.0
16/03:30pm 21.9 17.4 2.1 27 9.3 NW 15 20 8 11 1013.1 1013.0 0.0
16/03:00pm 22.1 17.4 3.3 29 9.1 NNW 17 26 9 14 1013.5 1013.4 0.0
16/02:30pm 22.2 17.7 4.3 31 8.8 NW 17 22 9 12 1014.1 1014.1 0.0
16/02:00pm 21.6 16.7 2.3 28 9.1 NW 17 28 9 15 1014.6 1014.6 0.0
16/01:30pm 21.7 16.6 2.9 29 9.0 NNW 19 32 10 17 1015.0 1015.0 0.0
16/01:00pm 20.8 14.8 3.1 31 8.4 NNW 24 32 13 17 1015.7 1015.7 0.0
16/12:30pm 20.7 15.0 3.0 31 8.4 NNW 22 32 12 17 1016.6 1016.5 0.0
16/12:00pm 19.5 13.3 1.9 31 8.1 NNW 24 33 13 18 1017.4 1017.3 0.0
16/11:30am 19.1 12.6 2.9 34 7.6 NW 26 35 14 19 1018.0 1017.9 0.0

Other Formats:

Comma delimited format used in spreadsheet applications
http://www.bom.gov.au/fwo/IDW60801/IDW60801.95638.axf

JavaScript Object Notation format (JSON) in row-major order
http://www.bom.gov.au/fwo/IDW60801/IDW60801.95638.json